Buoy 17652

sailwx.info

Track history (hours):
 
Tides and Currents Weather Stations Pressure Air Temp Water Temp Dewpoint Dewpoint Depression Visibility Wind Speed Wind Dir Waves Ship Positions

Drifting buoy 17652

Last reported at 2016-Sep-28 15:00 UTC. Time now 2016-Sep-28 17:08 UTC.
Position S 41°15' E 037°49'.

Barometer 1005.4 mb
Water temperature 12.9 ° C

Date/timePositionNaut miles runAvg speedWind from/ knotsBaromVisibWave heightAir tempDewpointWater temp
2016-Sep-28 15:00S 41°15' E 037°49'0 0.3 1005.4 12.9
2016-Sep-28 14:00S 41°15' E 037°49'1 0.5 1005.5 12.9
2016-Sep-28 12:00S 41°14' E 037°48'2 0.4 1006.1 13.0
2016-Sep-28 07:00S 41°14' E 037°46'1 0.6 1007.0 12.8
2016-Sep-28 06:00S 41°14' E 037°45'0 0.2 1006.6 12.8
2016-Sep-28 05:00S 41°14' E 037°45'0 0.3 1006.8 12.8
2016-Sep-28 04:00S 41°14' E 037°44'1 1.0 1006.5 12.8
2016-Sep-28 03:00S 41°14' E 037°43'1 0.3 1005.1 12.9
2016-Sep-28 00:00S 41°14' E 037°42'2 0.4 1003.3 13.1
2016-Sep-27 20:00S 41°13' E 037°40'1 0.8 1003.9 12.9
2016-Sep-27 19:00S 41°14' E 037°39'0 0.5 1003.6 13.0
2016-Sep-27 18:00S 41°13' E 037°39'0 0.1 1003.5 13.0
2016-Sep-27 17:00S 41°13' E 037°39'1 0.5 1002.8 13.0
2016-Sep-27 15:00S 41°14' E 037°38'6 1.9 1001.9 13.0
2016-Sep-27 12:00S 41°10' E 037°33'0 0.0 1001.6 13.0
2016-Sep-27 11:00S 41°10' E 037°33'0 0.0 1001.5 13.0
2016-Sep-27 07:00S 41°10' E 037°33'2 1.8 1002.5 13.0
2016-Sep-27 06:00S 41°08' E 037°32'2 1.0 1003.6 13.2
2016-Sep-27 04:00S 41°06' E 037°32'0 0.0 1004.9 13.2
2016-Sep-27 03:00S 41°06' E 037°32'2 1.6 1005.3 13.2
2016-Sep-27 02:00S 41°05' E 037°31'2 0.8 1006.2 13.1
2016-Sep-27 00:00S 41°03' E 037°30'2 1.0 1008.5 12.8
2016-Sep-26 22:00S 41°01' E 037°30'0 0.0 1010.7 12.7
2016-Sep-26 20:00S 41°01' E 037°30'3 1.1 1012.8 12.7
2016-Sep-26 17:00S 40°58' E 037°30'4 1.9 1015.9 12.8
2016-Sep-26 15:00S 40°54' E 037°32'1 0.8 1017.2 12.7
2016-Sep-26 14:00S 40°53' E 037°32'0 0.1 1017.9 12.8
2016-Sep-26 13:00S 40°54' E 037°32'2 1.0 1018.8 12.8
2016-Sep-26 11:00S 40°52' E 037°31'0 0.0 1020.4 12.7
2016-Sep-26 08:00S 40°52' E 037°31'2 0.9 1022.5 12.6
2016-Sep-26 06:00S 40°52' E 037°29'0 0.0 1023.3 13.2
2016-Sep-26 04:00S 40°52' E 037°29'1 1.1 1023.0 13.3
2016-Sep-26 03:00S 40°51' E 037°28'1 0.9 1022.4 13.3
2016-Sep-26 02:00S 40°51' E 037°27'0 0.0 1022.3 13.3
2016-Sep-26 00:00S 40°51' E 037°27'1 1.5 1021.1 13.3
2016-Sep-25 23:00S 40°51' E 037°25'0 0.0 1021.4 13.3
2016-Sep-25 22:00S 40°51' E 037°25'0 0.0 1021.3 13.3
2016-Sep-25 20:00S 40°51' E 037°25'1 1.3 1020.2 13.3
2016-Sep-25 19:00S 40°53' E 037°25'1 0.5 1019.5 13.3
2016-Sep-25 17:00S 40°54' E 037°25'2 1.5 1018.2 13.3
2016-Sep-25 16:00S 40°55' E 037°24'3 1.3 1016.9 13.3
2016-Sep-25 14:00S 40°57' E 037°22'0 0.1 1014.5 13.4
2016-Sep-25 13:00S 40°57' E 037°22'2 1.1 1013.4 13.4
2016-Sep-25 11:00S 40°59' E 037°20'6 1.2 1010.7 13.4
2016-Sep-25 06:00S 41°02' E 037°14'1 0.6 1005.8 13.3
2016-Sep-25 04:00S 41°03' E 037°12'2 1.5 1002.9 13.4
2016-Sep-25 03:00S 41°03' E 037°10'0 0.0 1001.6 13.4
2016-Sep-25 02:00S 41°03' E 037°10'2 1.0 1001.2 13.4
2016-Sep-25 00:00S 41°04' E 037°08'2 1.9 1000.3 13.4
2016-Sep-24 23:00S 41°04' E 037°05'1 0.2 1000.0 13.4
2016-Sep-24 19:00S 41°05' E 037°06'3 0.9 997.8 13.3
2016-Sep-24 16:00S 41°05' E 037°02'4 4.0 996.8 13.2
2016-Sep-24 15:00S 41°02' E 036°58'0 0.0 998.6 13.2
2016-Sep-24 14:00S 41°02' E 036°58'0 0.0 1000.6 13.2
2016-Sep-24 13:00S 41°02' E 036°58'2 1.1 1002.2 13.0
2016-Sep-24 11:00S 41°00' E 036°56'6 1.4 1005.3 13.2
2016-Sep-24 07:00S 40°55' E 036°54'3 1.4 1012.3 13.1
2016-Sep-24 05:00S 40°52' E 036°54'1 0.6 1014.1 13.1
2016-Sep-24 03:00S 40°51' E 036°54'0 0.1 1015.7 13.1
2016-Sep-24 01:00S 40°51' E 036°54'1 1.1 1016.9 13.2
2016-Sep-24 00:00S 40°50' E 036°53'1 0.7 1017.6 13.1
2016-Sep-23 23:00S 40°50' E 036°54'2 0.9 1018.3 13.1
2016-Sep-23 21:00S 40°49' E 036°52'0 0.2 1019.5 13.2
2016-Sep-23 19:00S 40°49' E 036°52'1 1.3 1020.0 13.2
2016-Sep-23 18:00S 40°48' E 036°50'0 0.3 1020.1 13.2
2016-Sep-23 17:00S 40°48' E 036°51'1 0.9 1019.7 13.2
2016-Sep-23 16:00S 40°47' E 036°51'1 0.6 1019.4 13.2
2016-Sep-23 15:00S 40°47' E 036°50'0 0.2 1019.1 13.2
2016-Sep-23 13:00S 40°47' E 036°50'2 2.1 1018.6 13.2
2016-Sep-23 12:00S 40°47' E 036°52'2 0.4 1018.5 13.2
2016-Sep-23 07:00S 40°47' E 036°50'2 1.9 1016.5 13.2
2016-Sep-23 06:00S 40°48' E 036°48'0 0.0 1015.1 13.1
2016-Sep-23 05:00S 40°48' E 036°48'1 0.5 1014.1 13.1
2016-Sep-23 03:00S 40°49' E 036°48'2 1.5 1011.3 9.9
2016-Sep-23 02:00S 40°49' E 036°46'0 0.0 1009.9 9.6
2016-Sep-23 01:00S 40°49' E 036°46'2 1.0 1008.7 10.4
2016-Sep-22 23:00S 40°49' E 036°43'4 0.6 1008.6 9.4
2016-Sep-22 16:00S 40°48' E 036°38'0 0.4 1008.7 10.2
2016-Sep-22 15:00S 40°47' E 036°37'0 0.2 1008.5 10.4
2016-Sep-22 12:00S 40°47' E 036°37'1 0.1 1008.3 10.1
2016-Sep-22 07:00S 40°47' E 036°37'1 0.9 1008.6 9.0
2016-Sep-22 06:00S 40°48' E 036°38'1 0.3 1008.6 8.9
2016-Sep-22 04:00S 40°49' E 036°37'0 0.4 1007.7 8.9
2016-Sep-22 03:00S 40°49' E 036°37'1 0.7 1007.0 8.9
2016-Sep-22 01:00S 40°49' E 036°35'4 1.9 1006.9 8.9
2016-Sep-21 23:00S 40°46' E 036°31'1 0.4 1008.4 9.0
2016-Sep-21 20:00S 40°46' E 036°33'2 0.8 1010.2 9.0
2016-Sep-21 18:00S 40°45' E 036°33'1 0.6 1011.1 9.0
2016-Sep-21 17:00S 40°44' E 036°34'2 0.2 1011.6 9.2
2016-Sep-21 08:00S 40°46' E 036°33'1 0.5 1016.4 9.0
2016-Sep-21 06:00S 40°45' E 036°33'0 0.0 1016.6 8.9
2016-Sep-21 05:00S 40°45' E 036°33'0 0.2 1016.7 8.7
2016-Sep-21 04:00S 40°45' E 036°33'1 0.6 1016.3 8.8
2016-Sep-21 03:00S 40°44' E 036°33'0 0.0 1015.6 8.8
2016-Sep-21 02:00S 40°44' E 036°33'0 0.0 1015.4 8.8
2016-Sep-21 00:00S 40°44' E 036°33'2 0.5 1014.4 8.8
2016-Sep-20 20:00S 40°45' E 036°35'0 0.0 1013.7 8.8
2016-Sep-20 19:00S 40°45' E 036°35'1 0.6 1013.3 8.9
2016-Sep-20 18:00S 40°46' E 036°35'1 0.6 1012.0 8.8
2016-Sep-20 16:00S 40°46' E 036°34'0 0.4 1010.1 8.8
2016-Sep-20 15:00S 40°47' E 036°34'2 0.6 1009.4 8.9
2016-Sep-20 12:00S 40°46' E 036°32'4 0.7 1009.7 8.9
2016-Sep-20 06:00S 40°44' E 036°27'1 0.3 1015.6 8.8
2016-Sep-20 04:00S 40°44' E 036°27'1 0.3 1017.8 8.8
2016-Sep-20 02:00S 40°43' E 036°26'1 0.3 1019.3 8.7
2016-Sep-20 00:00S 40°43' E 036°26'0 0.0 1021.2 8.6
2016-Sep-19 23:00S 40°43' E 036°26'1 0.3 1023.0 8.6
2016-Sep-19 21:00S 40°43' E 036°26'1 0.6 1024.7 8.6
2016-Sep-19 19:00S 40°44' E 036°25'1 0.3 1026.1 8.6
2016-Sep-19 16:00S 40°44' E 036°24'1 0.3 1027.7 8.6
2016-Sep-19 12:00S 40°45' E 036°22'1 0.2 1029.6 8.6
2016-Sep-19 06:00S 40°45' E 036°23'0 0.2 1032.9 8.3
2016-Sep-19 04:00S 40°45' E 036°24'0 0.2 1033.0 8.4
2016-Sep-19 03:00S 40°45' E 036°23'1 0.4 1033.0 8.3
2016-Sep-19 00:00S 40°46' E 036°22'0 0.2 1034.4 8.4
2016-Sep-18 22:00S 40°46' E 036°21'1 0.5 1035.4 8.4
2016-Sep-18 21:00S 40°45' E 036°22'0 0.1 1035.7 8.5
2016-Sep-18 19:00S 40°45' E 036°22'0 0.3 1036.0 8.5
2016-Sep-18 18:00S 40°46' E 036°22'0 0.1 1035.8 8.6
2016-Sep-18 17:00S 40°46' E 036°22'0 0.4 1035.8 8.6
2016-Sep-18 16:00S 40°46' E 036°22'0 0.2 1035.7 8.7
2016-Sep-18 15:00S 40°46' E 036°22'   1035.6 8.7
Track history (hours):
 
Tides and Currents Weather Stations Pressure Air Temp Water Temp Dewpoint Dewpoint Depression Visibility Wind Speed Wind Dir Waves Ship Positions

Drifting buoy 17652

Last reported at 2016-Sep-28 15:00 UTC. Time now 2016-Sep-28 17:08 UTC.
Position S 41°15' E 037°49'.

Barometer 1005.4 mb
Water temperature 12.9 ° C

Date/timePositionNaut miles runAvg speedWind from/ knotsBaromVisibWave heightAir tempDewpointWater temp
2016-Sep-28 15:00S 41°15' E 037°49'0 0.3 1005.4 12.9
2016-Sep-28 14:00S 41°15' E 037°49'1 0.5 1005.5 12.9
2016-Sep-28 12:00S 41°14' E 037°48'2 0.4 1006.1 13.0
2016-Sep-28 07:00S 41°14' E 037°46'1 0.6 1007.0 12.8
2016-Sep-28 06:00S 41°14' E 037°45'0 0.2 1006.6 12.8
2016-Sep-28 05:00S 41°14' E 037°45'0 0.3 1006.8 12.8
2016-Sep-28 04:00S 41°14' E 037°44'1 1.0 1006.5 12.8
2016-Sep-28 03:00S 41°14' E 037°43'1 0.3 1005.1 12.9
2016-Sep-28 00:00S 41°14' E 037°42'2 0.4 1003.3 13.1
2016-Sep-27 20:00S 41°13' E 037°40'1 0.8 1003.9 12.9
2016-Sep-27 19:00S 41°14' E 037°39'0 0.5 1003.6 13.0
2016-Sep-27 18:00S 41°13' E 037°39'0 0.1 1003.5 13.0
2016-Sep-27 17:00S 41°13' E 037°39'1 0.5 1002.8 13.0
2016-Sep-27 15:00S 41°14' E 037°38'6 1.9 1001.9 13.0
2016-Sep-27 12:00S 41°10' E 037°33'0 0.0 1001.6 13.0
2016-Sep-27 11:00S 41°10' E 037°33'0 0.0 1001.5 13.0
2016-Sep-27 07:00S 41°10' E 037°33'2 1.8 1002.5 13.0
2016-Sep-27 06:00S 41°08' E 037°32'2 1.0 1003.6 13.2
2016-Sep-27 04:00S 41°06' E 037°32'0 0.0 1004.9 13.2
2016-Sep-27 03:00S 41°06' E 037°32'2 1.6 1005.3 13.2
2016-Sep-27 02:00S 41°05' E 037°31'2 0.8 1006.2 13.1
2016-Sep-27 00:00S 41°03' E 037°30'2 1.0 1008.5 12.8
2016-Sep-26 22:00S 41°01' E 037°30'0 0.0 1010.7 12.7
2016-Sep-26 20:00S 41°01' E 037°30'3 1.1 1012.8 12.7
2016-Sep-26 17:00S 40°58' E 037°30'4 1.9 1015.9 12.8
2016-Sep-26 15:00S 40°54' E 037°32'1 0.8 1017.2 12.7
2016-Sep-26 14:00S 40°53' E 037°32'0 0.1 1017.9 12.8
2016-Sep-26 13:00S 40°54' E 037°32'2 1.0 1018.8 12.8
2016-Sep-26 11:00S 40°52' E 037°31'0 0.0 1020.4 12.7
2016-Sep-26 08:00S 40°52' E 037°31'2 0.9 1022.5 12.6
2016-Sep-26 06:00S 40°52' E 037°29'0 0.0 1023.3 13.2
2016-Sep-26 04:00S 40°52' E 037°29'1 1.1 1023.0 13.3
2016-Sep-26 03:00S 40°51' E 037°28'1 0.9 1022.4 13.3
2016-Sep-26 02:00S 40°51' E 037°27'0 0.0 1022.3 13.3
2016-Sep-26 00:00S 40°51' E 037°27'1 1.5 1021.1 13.3
2016-Sep-25 23:00S 40°51' E 037°25'0 0.0 1021.4 13.3
2016-Sep-25 22:00S 40°51' E 037°25'0 0.0 1021.3 13.3
2016-Sep-25 20:00S 40°51' E 037°25'1 1.3 1020.2 13.3
2016-Sep-25 19:00S 40°53' E 037°25'1 0.5 1019.5 13.3
2016-Sep-25 17:00S 40°54' E 037°25'2 1.5 1018.2 13.3
2016-Sep-25 16:00S 40°55' E 037°24'3 1.3 1016.9 13.3
2016-Sep-25 14:00S 40°57' E 037°22'0 0.1 1014.5 13.4
2016-Sep-25 13:00S 40°57' E 037°22'2 1.1 1013.4 13.4
2016-Sep-25 11:00S 40°59' E 037°20'6 1.2 1010.7 13.4
2016-Sep-25 06:00S 41°02' E 037°14'1 0.6 1005.8 13.3
2016-Sep-25 04:00S 41°03' E 037°12'2 1.5 1002.9 13.4
2016-Sep-25 03:00S 41°03' E 037°10'0 0.0 1001.6 13.4
2016-Sep-25 02:00S 41°03' E 037°10'2 1.0 1001.2 13.4
2016-Sep-25 00:00S 41°04' E 037°08'2 1.9 1000.3 13.4
2016-Sep-24 23:00S 41°04' E 037°05'1 0.2 1000.0 13.4
2016-Sep-24 19:00S 41°05' E 037°06'3 0.9 997.8 13.3
2016-Sep-24 16:00S 41°05' E 037°02'4 4.0 996.8 13.2
2016-Sep-24 15:00S 41°02' E 036°58'0 0.0 998.6 13.2
2016-Sep-24 14:00S 41°02' E 036°58'0 0.0 1000.6 13.2
2016-Sep-24 13:00S 41°02' E 036°58'2 1.1 1002.2 13.0
2016-Sep-24 11:00S 41°00' E 036°56'6 1.4 1005.3 13.2
2016-Sep-24 07:00S 40°55' E 036°54'3 1.4 1012.3 13.1
2016-Sep-24 05:00S 40°52' E 036°54'1 0.6 1014.1 13.1
2016-Sep-24 03:00S 40°51' E 036°54'0 0.1 1015.7 13.1
2016-Sep-24 01:00S 40°51' E 036°54'1 1.1 1016.9 13.2
2016-Sep-24 00:00S 40°50' E 036°53'1 0.7 1017.6 13.1
2016-Sep-23 23:00S 40°50' E 036°54'2 0.9 1018.3 13.1
2016-Sep-23 21:00S 40°49' E 036°52'0 0.2 1019.5 13.2
2016-Sep-23 19:00S 40°49' E 036°52'1 1.3 1020.0 13.2
2016-Sep-23 18:00S 40°48' E 036°50'0 0.3 1020.1 13.2
2016-Sep-23 17:00S 40°48' E 036°51'1 0.9 1019.7 13.2
2016-Sep-23 16:00S 40°47' E 036°51'1 0.6 1019.4 13.2
2016-Sep-23 15:00S 40°47' E 036°50'0 0.2 1019.1 13.2
2016-Sep-23 13:00S 40°47' E 036°50'2 2.1 1018.6 13.2
2016-Sep-23 12:00S 40°47' E 036°52'2 0.4 1018.5 13.2
2016-Sep-23 07:00S 40°47' E 036°50'2 1.9 1016.5 13.2
2016-Sep-23 06:00S 40°48' E 036°48'0 0.0 1015.1 13.1
2016-Sep-23 05:00S 40°48' E 036°48'1 0.5 1014.1 13.1
2016-Sep-23 03:00S 40°49' E 036°48'2 1.5 1011.3 9.9
2016-Sep-23 02:00S 40°49' E 036°46'0 0.0 1009.9 9.6
2016-Sep-23 01:00S 40°49' E 036°46'2 1.0 1008.7 10.4
2016-Sep-22 23:00S 40°49' E 036°43'4 0.6 1008.6 9.4
2016-Sep-22 16:00S 40°48' E 036°38'0 0.4 1008.7 10.2
2016-Sep-22 15:00S 40°47' E 036°37'0 0.2 1008.5 10.4
2016-Sep-22 12:00S 40°47' E 036°37'1 0.1 1008.3 10.1
2016-Sep-22 07:00S 40°47' E 036°37'1 0.9 1008.6 9.0
2016-Sep-22 06:00S 40°48' E 036°38'1 0.3 1008.6 8.9
2016-Sep-22 04:00S 40°49' E 036°37'0 0.4 1007.7 8.9
2016-Sep-22 03:00S 40°49' E 036°37'1 0.7 1007.0 8.9
2016-Sep-22 01:00S 40°49' E 036°35'4 1.9 1006.9 8.9
2016-Sep-21 23:00S 40°46' E 036°31'1 0.4 1008.4 9.0
2016-Sep-21 20:00S 40°46' E 036°33'2 0.8 1010.2 9.0
2016-Sep-21 18:00S 40°45' E 036°33'1 0.6 1011.1 9.0
2016-Sep-21 17:00S 40°44' E 036°34'2 0.2 1011.6 9.2
2016-Sep-21 08:00S 40°46' E 036°33'1 0.5 1016.4 9.0
2016-Sep-21 06:00S 40°45' E 036°33'0 0.0 1016.6 8.9
2016-Sep-21 05:00S 40°45' E 036°33'0 0.2 1016.7 8.7
2016-Sep-21 04:00S 40°45' E 036°33'1 0.6 1016.3 8.8
2016-Sep-21 03:00S 40°44' E 036°33'0 0.0 1015.6 8.8
2016-Sep-21 02:00S 40°44' E 036°33'0 0.0 1015.4 8.8
2016-Sep-21 00:00S 40°44' E 036°33'2 0.5 1014.4 8.8
2016-Sep-20 20:00S 40°45' E 036°35'0 0.0 1013.7 8.8
2016-Sep-20 19:00S 40°45' E 036°35'1 0.6 1013.3 8.9
2016-Sep-20 18:00S 40°46' E 036°35'1 0.6 1012.0 8.8
2016-Sep-20 16:00S 40°46' E 036°34'0 0.4 1010.1 8.8
2016-Sep-20 15:00S 40°47' E 036°34'2 0.6 1009.4 8.9
2016-Sep-20 12:00S 40°46' E 036°32'4 0.7 1009.7 8.9
2016-Sep-20 06:00S 40°44' E 036°27'1 0.3 1015.6 8.8
2016-Sep-20 04:00S 40°44' E 036°27'1 0.3 1017.8 8.8
2016-Sep-20 02:00S 40°43' E 036°26'1 0.3 1019.3 8.7
2016-Sep-20 00:00S 40°43' E 036°26'0 0.0 1021.2 8.6
2016-Sep-19 23:00S 40°43' E 036°26'1 0.3 1023.0 8.6
2016-Sep-19 21:00S 40°43' E 036°26'1 0.6 1024.7 8.6
2016-Sep-19 19:00S 40°44' E 036°25'1 0.3 1026.1 8.6
2016-Sep-19 16:00S 40°44' E 036°24'1 0.3 1027.7 8.6
2016-Sep-19 12:00S 40°45' E 036°22'1 0.2 1029.6 8.6
2016-Sep-19 06:00S 40°45' E 036°23'0 0.2 1032.9 8.3
2016-Sep-19 04:00S 40°45' E 036°24'0 0.2 1033.0 8.4
2016-Sep-19 03:00S 40°45' E 036°23'1 0.4 1033.0 8.3
2016-Sep-19 00:00S 40°46' E 036°22'0 0.2 1034.4 8.4
2016-Sep-18 22:00S 40°46' E 036°21'1 0.5 1035.4 8.4
2016-Sep-18 21:00S 40°45' E 036°22'0 0.1 1035.7 8.5
2016-Sep-18 19:00S 40°45' E 036°22'0 0.3 1036.0 8.5
2016-Sep-18 18:00S 40°46' E 036°22'0 0.1 1035.8 8.6
2016-Sep-18 17:00S 40°46' E 036°22'0 0.4 1035.8 8.6
2016-Sep-18 16:00S 40°46' E 036°22'0 0.2 1035.7 8.7
2016-Sep-18 15:00S 40°46' E 036°22'   1035.6 8.7

Dump ship's entire track history